Time;durP1;ratioP1;P1;durP2;ratioP2;P2;SDS_P1;SDS_P2;PMS_P1;PMS_P2;Temp;Humidity;BMP_temperature;BMP_pressure;BME280_temperature;BME280_humidity;BME280_pressure;Samples;Min_cycle;Max_cycle;Signal;HPM_P1;HPM_P2
2024/02/27 00:02:31;;;;;;;7.43;3.08;;;14.40;50.80;;;;;;6300187;28;20036;-75
2024/02/27 00:05:33;;;;;;;5.40;2.38;;;14.40;50.80;;;;;;6297699;28;20115;-73
2024/02/27 00:08:34;;;;;;;4.75;2.50;;;14.40;50.80;;;;;;6305147;28;20127;-74
2024/02/27 00:11:35;;;;;;;6.43;2.40;;;14.40;50.80;;;;;;6304802;28;20028;-73
2024/02/27 00:14:37;;;;;;;6.82;2.78;;;14.40;51.20;;;;;;6282559;28;20044;-75
2024/02/27 00:17:38;;;;;;;4.68;2.05;;;14.40;51.00;;;;;;6308281;28;20028;-74
2024/02/27 00:20:39;;;;;;;2.38;1.60;;;14.40;51.10;;;;;;6286468;28;20024;-75
2024/02/27 00:23:40;;;;;;;3.90;1.40;;;14.30;51.40;;;;;;6269026;28;20112;-75
2024/02/27 00:26:41;;;;;;;6.20;1.95;;;14.20;51.60;;;;;;6273806;28;20025;-74
2024/02/27 00:29:42;;;;;;;4.53;1.73;;;14.20;51.80;;;;;;6307935;28;20035;-74
2024/02/27 00:32:43;;;;;;;2.90;1.48;;;14.20;51.90;;;;;;6310394;28;20093;-74
2024/02/27 00:35:43;;;;;;;5.15;1.98;;;14.20;51.80;;;;;;6302452;28;20024;-74
2024/02/27 00:38:44;;;;;;;4.32;1.70;;;14.20;51.80;;;;;;6297086;28;20044;-74
2024/02/27 00:41:48;;;;;;;4.97;1.50;;;14.20;51.80;;;;;;6310665;28;20028;-74
2024/02/27 00:44:49;;;;;;;3.17;1.50;;;14.20;51.80;;;;;;6294058;28;20013;-75
2024/02/27 00:47:49;;;;;;;3.05;1.17;;;14.30;52.20;;;;;;6303201;28;20107;-73
2024/02/27 00:50:50;;;;;;;2.95;1.80;;;14.30;52.40;;;;;;6293864;28;20060;-75
2024/02/27 00:53:52;;;;;;;4.20;1.70;;;14.30;52.60;;;;;;6307112;28;20102;-75
2024/02/27 00:56:53;;;;;;;3.72;2.03;;;14.30;52.80;;;;;;6310025;28;20365;-73
2024/02/27 00:59:53;;;;;;;2.97;1.48;;;14.20;52.80;;;;;;6304489;28;20024;-75
2024/02/27 01:02:56;;;;;;;3.63;1.52;;;14.20;53.10;;;;;;6293813;28;20110;-75
2024/02/27 01:05:57;;;;;;;2.58;1.70;;;14.10;53.20;;;;;;6307207;28;20045;-75
2024/02/27 01:08:58;;;;;;;2.83;1.38;;;14.10;53.30;;;;;;6303588;28;20095;-75
2024/02/27 01:11:59;;;;;;;3.58;1.20;;;14.10;53.40;;;;;;6302033;28;20119;-75
2024/02/27 01:15:00;;;;;;;2.08;0.80;;;14.10;53.50;;;;;;6308187;28;20016;-74
2024/02/27 01:18:02;;;;;;;3.55;1.17;;;14.20;53.70;;;;;;6290590;28;20472;-75
2024/02/27 01:21:05;;;;;;;1.67;0.70;;;14.20;53.80;;;;;;6296260;28;20025;-74
2024/02/27 01:24:06;;;;;;;4.82;1.70;;;14.20;53.90;;;;;;6307483;28;20577;-74
2024/02/27 01:27:07;;;;;;;3.35;1.52;;;14.20;54.00;;;;;;6308715;28;20031;-74
2024/02/27 01:30:09;;;;;;;3.20;1.35;;;14.20;53.90;;;;;;6307932;28;20472;-74
2024/02/27 01:33:16;;;;;;;5.65;1.80;;;14.20;53.80;;;;;;6300802;28;20141;-75
2024/02/27 01:36:17;;;;;;;6.00;1.98;;;14.30;54.00;;;;;;6291577;28;20032;-76
2024/02/27 01:39:17;;;;;;;2.65;1.50;;;14.20;53.80;;;;;;6289389;28;20057;-76
2024/02/27 01:42:18;;;;;;;3.65;1.63;;;14.30;53.90;;;;;;6305337;28;20016;-75
2024/02/27 01:45:22;;;;;;;1.63;1.33;;;14.30;53.80;;;;;;6308364;28;20031;-75
2024/02/27 01:48:23;;;;;;;4.88;2.08;;;14.40;53.80;;;;;;6295841;28;20051;-74
2024/02/27 01:51:24;;;;;;;2.88;1.40;;;14.30;53.70;;;;;;6304242;28;20021;-74
2024/02/27 01:54:26;;;;;;;3.63;1.50;;;14.30;53.70;;;;;;6273041;28;20039;-77
2024/02/27 01:57:28;;;;;;;3.42;1.67;;;14.30;53.80;;;;;;6298590;28;20063;-74
2024/02/27 02:00:29;;;;;;;4.70;1.95;;;14.30;53.80;;;;;;6295123;28;20062;-74
2024/02/27 02:03:35;;;;;;;2.90;1.90;;;14.30;53.80;;;;;;6295940;28;20024;-73
2024/02/27 02:06:38;;;;;;;4.70;1.83;;;14.30;53.80;;;;;;6308404;28;20099;-74
2024/02/27 02:09:39;;;;;;;3.00;2.03;;;14.30;53.90;;;;;;6292852;28;20041;-74
2024/02/27 02:12:40;;;;;;;3.08;1.73;;;14.30;53.90;;;;;;6286944;28;20028;-75
2024/02/27 02:15:42;;;;;;;4.50;2.05;;;14.30;53.90;;;;;;6295407;28;20027;-74
2024/02/27 02:18:42;;;;;;;5.10;1.95;;;14.20;53.80;;;;;;6286086;28;20106;-74
2024/02/27 02:21:48;;;;;;;5.30;1.90;;;14.20;53.80;;;;;;6305328;28;20050;-74
2024/02/27 02:29:13;;;;;;;3.17;1.95;;;14.20;53.80;;;;;;6284973;28;20025;-75
2024/02/27 02:32:15;;;;;;;2.67;1.38;;;14.20;54.00;;;;;;6288709;28;20008;-74
2024/02/27 02:35:16;;;;;;;1.48;1.00;;;14.10;54.10;;;;;;6286777;28;20195;-75
2024/02/27 02:38:17;;;;;;;5.10;0.90;;;14.10;54.40;;;;;;6273785;28;20124;-75
2024/02/27 02:41:18;;;;;;;1.35;1.00;;;14.10;54.50;;;;;;6307218;28;20024;-74
2024/02/27 02:44:19;;;;;;;2.50;0.95;;;14.10;54.60;;;;;;6300595;28;20024;-73
2024/02/27 02:47:20;;;;;;;2.58;0.75;;;14.10;54.80;;;;;;6300788;28;20464;-75
2024/02/27 02:50:22;;;;;;;3.15;1.20;;;14.10;54.90;;;;;;6302125;28;20016;-73
2024/02/27 02:53:23;;;;;;;2.78;1.42;;;14.00;55.00;;;;;;6286830;28;20106;-75
2024/02/27 02:56:24;;;;;;;2.17;1.20;;;14.00;55.10;;;;;;6291679;28;20054;-74
2024/02/27 02:59:25;;;;;;;2.90;1.52;;;14.00;55.10;;;;;;6303199;28;20112;-75
2024/02/27 03:02:27;;;;;;;3.78;1.80;;;14.00;55.00;;;;;;6301958;28;20130;-75
2024/02/27 03:05:28;;;;;;;1.88;1.23;;;14.00;55.00;;;;;;6301712;28;20360;-75
2024/02/27 03:08:28;;;;;;;4.93;2.30;;;14.00;54.90;;;;;;6285982;28;20408;-75
2024/02/27 03:11:29;;;;;;;4.28;1.38;;;14.00;54.80;;;;;;6301670;28;20035;-74
2024/02/27 03:14:32;;;;;;;3.42;1.65;;;14.10;54.80;;;;;;6281755;28;20031;-73
2024/02/27 03:17:33;;;;;;;3.50;1.77;;;14.10;54.80;;;;;;6290942;28;20472;-74
2024/02/27 03:20:34;;;;;;;2.80;1.45;;;14.10;54.80;;;;;;6296718;28;20016;-75
2024/02/27 03:23:36;;;;;;;1.88;1.35;;;14.00;54.70;;;;;;6299975;28;20465;-74
2024/02/27 03:26:37;;;;;;;3.85;1.95;;;14.10;54.70;;;;;;6283777;28;20058;-75
2024/02/27 03:29:38;;;;;;;2.60;1.70;;;14.10;54.70;;;;;;6303162;28;20025;-74
2024/02/27 03:32:39;;;;;;;3.20;1.60;;;14.10;54.70;;;;;;6278674;28;20020;-74
2024/02/27 03:35:40;;;;;;;1.73;1.27;;;14.10;54.60;;;;;;6307609;28;20107;-73
2024/02/27 03:38:42;;;;;;;5.57;1.63;;;14.10;54.60;;;;;;6308163;28;20032;-74
2024/02/27 03:41:43;;;;;;;3.60;1.65;;;14.10;54.60;;;;;;6298685;28;20024;-75
2024/02/27 03:44:47;;;;;;;3.70;2.00;;;14.10;54.60;;;;;;6296139;28;20107;-75
2024/02/27 03:47:49;;;;;;;4.65;1.83;;;14.10;54.70;;;;;;6294391;28;20158;-75
2024/02/27 03:50:50;;;;;;;4.60;1.50;;;14.10;54.60;;;;;;6299500;28;20153;-75
2024/02/27 03:53:50;;;;;;;3.72;1.70;;;14.10;54.60;;;;;;6300193;28;20024;-75
2024/02/27 03:56:51;;;;;;;1.63;1.40;;;14.10;54.60;;;;;;6306843;28;20036;-75
2024/02/27 03:59:52;;;;;;;3.38;1.73;;;14.10;54.60;;;;;;6287840;28;20024;-75
2024/02/27 04:02:53;;;;;;;3.92;1.90;;;14.10;54.50;;;;;;6298214;28;20395;-74
2024/02/27 04:05:54;;;;;;;5.68;2.58;;;14.10;54.50;;;;;;6287557;28;20121;-75
2024/02/27 04:08:56;;;;;;;2.85;1.45;;;14.20;54.50;;;;;;6290586;28;20085;-74
2024/02/27 04:11:57;;;;;;;3.83;1.60;;;14.20;54.40;;;;;;6298067;28;20020;-76
2024/02/27 04:14:57;;;;;;;3.75;1.65;;;14.10;54.40;;;;;;6305869;28;20027;-74
2024/02/27 04:17:58;;;;;;;1.75;1.45;;;14.10;54.40;;;;;;6294064;28;20044;-74
2024/02/27 04:21:00;;;;;;;2.05;1.50;;;14.10;54.40;;;;;;6291866;28;20653;-75
2024/02/27 04:24:00;;;;;;;7.03;1.75;;;14.10;54.40;;;;;;6299849;28;20157;-73
2024/02/27 04:27:10;;;;;;;2.25;1.55;;;14.10;54.50;;;;;;6264429;28;20071;-75
2024/02/27 04:30:13;;;;;;;1.85;1.23;;;14.00;54.50;;;;;;6304811;28;20034;-74
2024/02/27 04:33:14;;;;;;;4.85;1.70;;;14.00;54.60;;;;;;6307211;28;20566;-75
2024/02/27 04:36:15;;;;;;;3.72;1.55;;;14.00;54.70;;;;;;6271249;28;20043;-74
2024/02/27 04:39:16;;;;;;;4.30;1.30;;;14.00;55.30;;;;;;6295646;28;20020;-75
2024/02/27 04:42:17;;;;;;;1.52;0.77;;;13.90;54.90;;;;;;6302615;28;20016;-77
2024/02/27 04:45:18;;;;;;;2.72;1.00;;;13.80;55.20;;;;;;6304904;28;20035;-74
2024/02/27 04:48:19;;;;;;;1.58;1.05;;;13.80;55.50;;;;;;6302592;28;20069;-75
2024/02/27 04:51:20;;;;;;;3.30;0.90;;;13.70;55.60;;;;;;6302929;28;20484;-74
2024/02/27 04:54:21;;;;;;;1.02;0.93;;;13.70;55.80;;;;;;6293550;28;20031;-75
2024/02/27 04:57:22;;;;;;;2.25;0.80;;;13.70;56.10;;;;;;6306173;28;20035;-75
2024/02/27 05:00:26;;;;;;;3.35;1.15;;;13.70;56.10;;;;;;6321724;28;20031;-76
2024/02/27 05:03:27;;;;;;;2.08;1.30;;;13.70;56.10;;;;;;6309416;28;20099;-75
2024/02/27 05:06:28;;;;;;;3.00;1.00;;;13.80;56.00;;;;;;6293025;28;20395;-75
2024/02/27 05:09:30;;;;;;;4.55;0.88;;;13.80;55.90;;;;;;6310282;28;20089;-75
2024/02/27 05:12:31;;;;;;;2.08;1.20;;;13.90;56.00;;;;;;6309873;28;20036;-73
2024/02/27 05:15:32;;;;;;;4.43;1.25;;;13.80;55.90;;;;;;6284671;28;20101;-74
2024/02/27 05:18:33;;;;;;;3.22;1.15;;;13.90;56.00;;;;;;6287415;28;20513;-75
2024/02/27 05:21:35;;;;;;;1.50;1.40;;;14.00;56.00;;;;;;6278222;28;20179;-76
2024/02/27 05:24:36;;;;;;;7.22;1.85;;;13.90;56.10;;;;;;6308068;28;20047;-75
2024/02/27 05:27:37;;;;;;;3.80;0.95;;;13.90;56.00;;;;;;6285088;28;20025;-74
2024/02/27 05:30:39;;;;;;;7.50;1.27;;;13.90;56.00;;;;;;6311201;28;20044;-75
2024/02/27 05:33:40;;;;;;;2.58;1.10;;;13.90;56.10;;;;;;6303258;28;20054;-74
2024/02/27 05:36:41;;;;;;;2.90;1.00;;;13.90;56.10;;;;;;6277239;28;20136;-75
2024/02/27 05:39:42;;;;;;;4.03;1.20;;;14.00;56.10;;;;;;6284388;28;20025;-74
2024/02/27 05:42:43;;;;;;;2.33;1.13;;;14.00;55.90;;;;;;6294927;28;20080;-74
2024/02/27 05:45:44;;;;;;;1.92;1.23;;;14.00;55.90;;;;;;6301602;28;20133;-75
2024/02/27 05:48:45;;;;;;;2.28;1.27;;;14.00;55.80;;;;;;6287560;28;20109;-75
2024/02/27 05:51:45;;;;;;;1.75;1.15;;;14.00;55.70;;;;;;6303816;28;20061;-75
2024/02/27 05:54:46;;;;;;;2.25;1.50;;;14.00;55.60;;;;;;6289826;28;20432;-75
2024/02/27 05:57:47;;;;;;;6.22;1.55;;;14.00;55.40;;;;;;6284089;28;20029;-74
2024/02/27 06:00:49;;;;;;;2.00;1.30;;;14.00;55.30;;;;;;6285508;28;20330;-74
2024/02/27 06:03:50;;;;;;;3.17;1.80;;;14.00;55.30;;;;;;6293338;28;20028;-75
2024/02/27 06:06:50;;;;;;;2.40;1.00;;;14.00;55.30;;;;;;6284105;28;20108;-75
2024/02/27 06:09:54;;;;;;;2.30;1.27;;;14.00;55.40;;;;;;6276215;28;20074;-75
2024/02/27 06:12:54;;;;;;;3.38;1.38;;;14.00;55.40;;;;;;6299401;28;20028;-75
2024/02/27 06:15:57;;;;;;;4.30;1.80;;;14.00;55.40;;;;;;6313022;28;20020;-76
2024/02/27 06:18:59;;;;;;;3.35;1.55;;;14.00;55.40;;;;;;6284827;28;20395;-74
2024/02/27 06:22:18;;;;;;;1.98;1.38;;;14.00;55.40;;;;;;6311135;28;20038;-74
2024/02/27 06:25:22;;;;;;;3.47;1.73;;;14.00;55.40;;;;;;6293319;28;20032;-75
2024/02/27 06:28:23;;;;;;;3.20;1.95;;;14.00;55.40;;;;;;6325612;28;20058;-74
2024/02/27 06:31:24;;;;;;;2.78;1.85;;;14.00;55.30;;;;;;6308406;28;20389;-75
2024/02/27 06:34:26;;;;;;;4.10;2.28;;;14.00;55.30;;;;;;6307083;28;20095;-76
2024/02/27 06:37:26;;;;;;;2.80;1.70;;;14.00;55.30;;;;;;6292948;28;20124;-74
2024/02/27 06:40:28;;;;;;;3.70;1.73;;;14.00;55.30;;;;;;6295567;28;20372;-75
2024/02/27 06:43:29;;;;;;;4.82;1.88;;;14.00;55.30;;;;;;6275255;28;20038;-75
2024/02/27 06:46:30;;;;;;;5.00;1.70;;;14.10;55.40;;;;;;6305151;28;20020;-74
2024/02/27 06:49:31;;;;;;;1.85;1.27;;;14.00;55.30;;;;;;6296732;28;20387;-76
2024/02/27 06:52:34;;;;;;;3.25;1.30;;;14.00;55.40;;;;;;6304074;28;20016;-73
2024/02/27 06:55:35;;;;;;;5.80;1.70;;;13.90;55.40;;;;;;6294899;28;20039;-75
2024/02/27 06:58:36;;;;;;;2.33;1.40;;;13.90;55.50;;;;;;6286056;28;20488;-75
2024/02/27 07:01:38;;;;;;;2.30;1.60;;;13.90;55.60;;;;;;6288955;28;20036;-74
2024/02/27 07:04:38;;;;;;;1.77;1.42;;;13.90;55.60;;;;;;6302007;28;20020;-74
2024/02/27 07:07:39;;;;;;;2.25;1.33;;;14.00;55.60;;;;;;6307288;28;20028;-73
2024/02/27 07:10:42;;;;;;;2.03;1.40;;;14.00;55.40;;;;;;6306678;28;20437;-75
2024/02/27 07:13:44;;;;;;;4.47;1.92;;;14.10;55.40;;;;;;6289887;28;20024;-74
2024/02/27 07:16:45;;;;;;;8.85;1.80;;;14.30;55.40;;;;;;6305747;28;20078;-75
2024/02/27 07:19:46;;;;;;;4.45;1.55;;;14.20;55.20;;;;;;6307567;28;20016;-73
2024/02/27 07:22:48;;;;;;;4.38;1.88;;;14.30;55.10;;;;;;6297734;28;20048;-75
2024/02/27 07:25:49;;;;;;;5.53;2.30;;;14.30;55.10;;;;;;6267720;28;20452;-76
2024/02/27 07:28:50;;;;;;;3.80;2.00;;;14.40;55.00;;;;;;6304618;28;20063;-75
2024/02/27 07:31:53;;;;;;;5.00;1.92;;;14.40;55.00;;;;;;6290185;28;20111;-75
2024/02/27 07:34:54;;;;;;;3.95;1.67;;;14.50;54.90;;;;;;6292527;28;20132;-75
2024/02/27 07:37:55;;;;;;;4.13;2.13;;;14.40;54.60;;;;;;6307163;28;20040;-75
2024/02/27 07:40:57;;;;;;;4.03;1.83;;;14.50;54.60;;;;;;6293027;28;20099;-75
2024/02/27 07:43:58;;;;;;;5.22;2.10;;;14.50;54.40;;;;;;6302821;28;20021;-77
2024/02/27 07:46:59;;;;;;;4.57;2.30;;;14.50;54.30;;;;;;6302569;28;20064;-76
2024/02/27 07:50:00;;;;;;;2.50;1.60;;;14.60;54.20;;;;;;6286578;28;20040;-74
2024/02/27 07:53:01;;;;;;;3.78;1.90;;;14.60;54.10;;;;;;6307001;28;20024;-74
2024/02/27 07:56:02;;;;;;;5.18;2.10;;;14.60;54.00;;;;;;6289619;28;20028;-76
2024/02/27 07:59:04;;;;;;;3.67;1.60;;;14.70;54.10;;;;;;6285245;28;20043;-75
2024/02/27 08:02:08;;;;;;;4.65;1.75;;;14.70;53.90;;;;;;6299479;28;20100;-75
2024/02/27 08:05:09;;;;;;;5.60;2.45;;;14.70;53.80;;;;;;6302514;28;20442;-74
2024/02/27 08:08:13;;;;;;;3.65;1.90;;;14.80;53.70;;;;;;6305217;28;20028;-74
2024/02/27 08:11:14;;;;;;;4.43;2.10;;;14.90;53.60;;;;;;6314758;28;20047;-75
2024/02/27 08:14:17;;;;;;;3.63;2.25;;;15.00;53.20;;;;;;6306084;28;20092;-76
2024/02/27 08:17:18;;;;;;;8.07;2.75;;;15.00;52.90;;;;;;6290628;28;20024;-75
2024/02/27 08:20:19;;;;;;;5.65;2.33;;;15.10;52.70;;;;;;6308447;28;20443;-75
2024/02/27 08:23:20;;;;;;;3.75;2.28;;;15.20;52.50;;;;;;6303829;28;20133;-75
2024/02/27 08:26:23;;;;;;;4.03;2.30;;;15.10;52.40;;;;;;6300429;28;20055;-74
2024/02/27 08:29:24;;;;;;;4.18;2.22;;;15.10;52.60;;;;;;6267883;28;20025;-73
2024/02/27 08:32:25;;;;;;;5.95;2.33;;;15.10;52.20;;;;;;6298381;28;20062;-75
2024/02/27 08:35:26;;;;;;;7.38;2.05;;;15.00;52.10;;;;;;6268012;28;20024;-73
2024/02/27 08:38:27;;;;;;;4.20;2.33;;;14.80;52.40;;;;;;6296939;28;20480;-74
2024/02/27 08:41:28;;;;;;;3.72;2.13;;;14.70;52.60;;;;;;6295790;28;20065;-76
2024/02/27 08:44:29;;;;;;;16.17;4.50;;;14.70;52.80;;;;;;6306973;28;20021;-75
2024/02/27 08:47:29;;;;;;;7.15;3.20;;;14.60;52.90;;;;;;6294619;28;20028;-74
2024/02/27 08:50:32;;;;;;;3.97;2.55;;;14.60;53.10;;;;;;6292770;28;20341;-75
2024/02/27 08:53:33;;;;;;;5.28;2.72;;;14.60;53.10;;;;;;6319404;28;20020;-76
2024/02/27 08:56:36;;;;;;;6.15;2.97;;;14.60;53.20;;;;;;6303911;28;20084;-75
2024/02/27 08:59:39;;;;;;;8.18;2.50;;;14.50;53.20;;;;;;6313024;28;20013;-76
2024/02/27 09:02:40;;;;;;;5.03;2.20;;;14.50;53.30;;;;;;6294206;28;20032;-74
2024/02/27 09:05:43;;;;;;;4.70;2.70;;;14.50;53.20;;;;;;6282399;28;20089;-75
2024/02/27 09:08:44;;;;;;;3.20;1.95;;;14.50;53.10;;;;;;6301729;28;20144;-75
2024/02/27 09:11:48;;;;;;;6.25;2.60;;;14.50;53.80;;;;;;6292788;28;20020;-75
2024/02/27 09:14:50;;;;;;;6.18;3.38;;;14.50;53.00;;;;;;6309529;28;20505;-75
2024/02/27 09:17:51;;;;;;;3.70;2.28;;;14.60;53.10;;;;;;6292842;28;20044;-75
2024/02/27 09:20:52;;;;;;;6.68;2.17;;;14.60;53.00;;;;;;6278769;28;20028;-74
2024/02/27 09:23:54;;;;;;;10.57;2.65;;;14.50;52.90;;;;;;6309014;28;20173;-75
2024/02/27 09:26:56;;;;;;;3.72;2.33;;;14.50;53.10;;;;;;6309749;28;20108;-76
2024/02/27 09:29:57;;;;;;;10.63;2.70;;;14.40;53.00;;;;;;6309800;28;20070;-74
2024/02/27 09:32:58;;;;;;;4.18;2.53;;;14.40;53.10;;;;;;6294817;28;20409;-75
2024/02/27 09:35:58;;;;;;;4.65;2.80;;;14.40;53.20;;;;;;6294828;28;20025;-75
2024/02/27 09:38:59;;;;;;;5.00;2.78;;;14.30;53.30;;;;;;6286448;28;20105;-75
2024/02/27 09:42:12;;;;;;;7.85;3.35;;;14.30;53.40;;;;;;6305066;28;20028;-75
2024/02/27 09:45:15;;;;;;;5.43;2.90;;;14.30;53.40;;;;;;6286388;28;20051;-75
2024/02/27 09:48:20;;;;;;;5.90;2.58;;;14.30;53.40;;;;;;6294424;28;20107;-75
2024/02/27 09:51:25;;;;;;;8.73;2.83;;;14.20;53.40;;;;;;6308950;28;20031;-75
2024/02/27 09:54:27;;;;;;;9.63;2.92;;;14.20;53.50;;;;;;6291510;28;20028;-76
2024/02/27 09:57:28;;;;;;;5.07;3.00;;;14.10;53.50;;;;;;6301160;28;20036;-75
2024/02/27 10:00:29;;;;;;;6.95;3.17;;;14.10;53.70;;;;;;6285676;28;20025;-77
2024/02/27 10:03:30;;;;;;;4.53;2.55;;;14.10;53.70;;;;;;6301543;28;20040;-76
2024/02/27 10:06:36;;;;;;;9.25;3.60;;;14.10;53.70;;;;;;6299240;28;20056;-75
2024/02/27 10:09:46;;;;;;;7.95;3.13;;;14.10;53.70;;;;;;6288126;28;20328;-75
2024/02/27 10:12:47;;;;;;;7.75;2.72;;;14.10;53.70;;;;;;6307295;28;20016;-74
2024/02/27 10:15:49;;;;;;;8.43;3.85;;;14.00;53.60;;;;;;6300347;28;20027;-75
2024/02/27 10:18:50;;;;;;;4.82;2.88;;;14.00;53.70;;;;;;6307384;28;20173;-74
2024/02/27 10:21:54;;;;;;;6.53;3.35;;;13.90;53.80;;;;;;6307797;28;20028;-75
2024/02/27 10:25:05;;;;;;;5.75;3.00;;;13.90;54.00;;;;;;6308974;28;20604;-76
2024/02/27 10:28:06;;;;;;;6.38;3.47;;;13.90;54.00;;;;;;6282645;28;20025;-75
2024/02/27 10:31:10;;;;;;;5.25;3.03;;;13.80;54.20;;;;;;6310170;28;20433;-75
2024/02/27 10:34:13;;;;;;;7.30;3.40;;;13.80;54.20;;;;;;6309978;28;20054;-76
2024/02/27 10:37:20;;;;;;;4.00;3.10;;;13.80;54.20;;;;;;6280999;28;20451;-75
2024/02/27 10:40:28;;;;;;;4.95;3.22;;;13.70;54.40;;;;;;6300466;28;20836;-75
2024/02/27 10:43:33;;;;;;;5.00;3.05;;;13.70;54.50;;;;;;6295182;28;20637;-75
2024/02/27 10:46:36;;;;;;;13.13;3.20;;;13.70;54.60;;;;;;6291383;28;20189;-75
2024/02/27 10:49:37;;;;;;;11.07;3.97;;;13.70;54.70;;;;;;6297360;28;20137;-75
2024/02/27 10:52:39;;;;;;;5.47;3.60;;;13.70;54.60;;;;;;6300533;28;20032;-74
2024/02/27 10:55:41;;;;;;;7.20;3.60;;;13.80;54.50;;;;;;6300974;28;20152;-76
2024/02/27 10:58:42;;;;;;;11.63;4.28;;;13.80;54.50;;;;;;6270583;28;20129;-75
2024/02/27 11:01:45;;;;;;;6.20;3.70;;;13.90;54.30;;;;;;6284834;28;20613;-75
2024/02/27 11:04:50;;;;;;;9.80;3.80;;;13.90;54.30;;;;;;6284666;28;20028;-75
2024/02/27 11:07:55;;;;;;;6.88;3.83;;;13.90;54.80;;;;;;6300891;28;20032;-74
2024/02/27 11:10:57;;;;;;;6.90;3.95;;;14.00;54.20;;;;;;6287125;28;20082;-74
2024/02/27 11:14:04;;;;;;;6.38;3.20;;;14.00;54.10;;;;;;6306911;28;20058;-75
2024/02/27 11:17:16;;;;;;;7.72;3.35;;;14.00;54.10;;;;;;6293999;28;20032;-76
2024/02/27 11:20:17;;;;;;;6.10;3.50;;;14.10;54.20;;;;;;6299404;28;20020;-75
2024/02/27 11:23:18;;;;;;;7.88;3.70;;;14.20;53.90;;;;;;6309077;28;20072;-75
2024/02/27 11:26:20;;;;;;;7.32;3.63;;;14.30;53.80;;;;;;6300205;28;20023;-77
2024/02/27 11:29:22;;;;;;;5.85;3.38;;;14.40;53.50;;;;;;6278299;28;20015;-76
2024/02/27 11:32:22;;;;;;;6.18;3.80;;;14.60;53.20;;;;;;6315766;28;20066;-75
2024/02/27 11:35:24;;;;;;;7.00;3.47;;;14.80;52.90;;;;;;6303957;28;20012;-75
2024/02/27 11:38:34;;;;;;;5.85;2.55;;;14.90;52.50;;;;;;6292539;28;20041;-76
2024/02/27 11:41:35;;;;;;;5.22;3.30;;;15.00;52.20;;;;;;6305621;28;20047;-74
2024/02/27 11:45:03;;;;;;;7.75;3.60;;;15.00;52.20;;;;;;6268725;28;20065;-76
2024/02/27 11:48:09;;;;;;;5.53;3.45;;;15.00;52.10;;;;;;6295437;28;20020;-75
2024/02/27 11:51:11;;;;;;;6.72;4.15;;;14.90;52.10;;;;;;6290711;28;20033;-76
2024/02/27 11:54:13;;;;;;;5.70;3.17;;;14.90;52.30;;;;;;6294251;28;20116;-76
2024/02/27 11:57:14;;;;;;;5.47;3.20;;;14.80;52.30;;;;;;6297905;28;20029;-76
2024/02/27 12:00:18;;;;;;;13.30;3.88;;;14.70;52.40;;;;;;6299994;28;20525;-76
2024/02/27 12:03:20;;;;;;;6.57;3.17;;;14.60;52.40;;;;;;6306294;28;20043;-77
2024/02/27 12:06:21;;;;;;;8.82;3.75;;;14.50;52.60;;;;;;6299348;28;20024;-75
2024/02/27 12:09:26;;;;;;;12.57;3.55;;;14.40;52.70;;;;;;6302761;28;20173;-76
2024/02/27 12:12:27;;;;;;;5.90;3.17;;;14.40;52.90;;;;;;6304713;28;20020;-76
2024/02/27 12:15:28;;;;;;;5.22;3.08;;;14.30;52.90;;;;;;6289396;28;20016;-75
2024/02/27 12:18:29;;;;;;;7.35;3.75;;;14.30;53.10;;;;;;6299872;28;20028;-76
2024/02/27 12:21:31;;;;;;;7.25;2.92;;;14.20;53.10;;;;;;6289755;28;20441;-74
2024/02/27 12:24:31;;;;;;;4.38;2.88;;;14.30;53.20;;;;;;6308031;28;20123;-76
2024/02/27 12:27:37;;;;;;;6.50;3.00;;;14.20;53.20;;;;;;6299565;28;20058;-75
2024/02/27 12:30:46;;;;;;;3.97;2.63;;;14.20;53.40;;;;;;6289685;28;20113;-75
2024/02/27 12:33:50;;;;;;;6.32;3.38;;;14.20;53.40;;;;;;6309195;28;20180;-76
2024/02/27 12:36:51;;;;;;;7.05;3.05;;;14.10;53.50;;;;;;6304592;28;20059;-76
2024/02/27 12:39:52;;;;;;;4.95;2.90;;;14.10;53.70;;;;;;6302123;28;20154;-76
2024/02/27 12:42:54;;;;;;;7.72;3.60;;;14.10;53.80;;;;;;6307778;28;20759;-76
2024/02/27 12:45:56;;;;;;;7.80;4.20;;;14.10;53.80;;;;;;6286923;28;20468;-74
2024/02/27 12:48:58;;;;;;;11.52;3.53;;;14.10;53.70;;;;;;6301965;28;20149;-76
2024/02/27 12:52:01;;;;;;;4.63;3.10;;;14.10;53.80;;;;;;6290587;28;20028;-76
2024/02/27 12:55:06;;;;;;;5.00;3.20;;;14.20;53.80;;;;;;6293307;28;20462;-77
2024/02/27 12:58:08;;;;;;;4.95;2.72;;;14.20;53.80;;;;;;6290569;28;20028;-76
2024/02/27 13:01:11;;;;;;;6.47;3.10;;;14.20;53.80;;;;;;6281536;28;20059;-76
2024/02/27 13:04:13;;;;;;;6.07;3.63;;;14.00;53.60;;;;;;6286478;28;20028;-76
2024/02/27 13:07:18;;;;;;;6.10;3.63;;;14.10;53.70;;;;;;6281613;28;20033;-74
2024/02/27 13:10:19;;;;;;;7.85;4.07;;;14.10;53.80;;;;;;6301575;28;20024;-77
2024/02/27 13:13:21;;;;;;;8.75;3.20;;;14.00;53.90;;;;;;6306135;28;20020;-76
2024/02/27 13:16:22;;;;;;;5.50;3.05;;;14.10;54.10;;;;;;6298257;28;20060;-76
2024/02/27 13:19:24;;;;;;;6.30;3.28;;;14.00;54.20;;;;;;6301574;28;20500;-76
2024/02/27 13:22:26;;;;;;;4.90;3.30;;;14.00;54.20;;;;;;6301882;28;20074;-76
2024/02/27 13:25:28;;;;;;;10.20;3.60;;;14.00;54.20;;;;;;6309408;28;20032;-77
2024/02/27 13:28:29;;;;;;;4.68;2.95;;;14.10;54.20;;;;;;6298633;28;20016;-76
2024/02/27 13:31:30;;;;;;;6.35;4.00;;;14.20;54.20;;;;;;6293835;28;20090;-77
2024/02/27 13:34:30;;;;;;;6.45;3.70;;;14.20;54.10;;;;;;6288360;28;20174;-76
2024/02/27 13:37:32;;;;;;;7.57;3.53;;;14.30;54.00;;;;;;6294656;28;20024;-76
2024/02/27 13:40:33;;;;;;;4.45;2.97;;;14.40;53.70;;;;;;6300642;28;20063;-76
2024/02/27 13:43:36;;;;;;;5.82;3.67;;;14.50;53.50;;;;;;6285437;28;20035;-75
2024/02/27 13:46:37;;;;;;;6.93;3.83;;;14.60;53.40;;;;;;6305000;28;20044;-76
2024/02/27 13:49:38;;;;;;;6.50;3.50;;;14.70;53.10;;;;;;6295538;28;20016;-76
2024/02/27 13:52:42;;;;;;;5.72;3.47;;;14.70;53.00;;;;;;6307723;28;20456;-76
2024/02/27 13:55:43;;;;;;;5.53;3.35;;;14.80;52.90;;;;;;6309553;28;20051;-76
2024/02/27 13:58:44;;;;;;;8.80;4.53;;;14.80;52.70;;;;;;6292449;28;20373;-77
2024/02/27 14:01:45;;;;;;;6.15;3.75;;;14.90;52.60;;;;;;6288541;28;20032;-77
2024/02/27 14:04:46;;;;;;;6.03;2.97;;;15.00;52.40;;;;;;6290398;28;20016;-77
2024/02/27 14:07:48;;;;;;;4.35;3.22;;;15.00;52.20;;;;;;6293707;28;20092;-76
2024/02/27 14:10:49;;;;;;;7.85;3.65;;;15.00;52.10;;;;;;6292175;28;20020;-77
2024/02/27 14:13:53;;;;;;;6.75;3.80;;;14.90;52.20;;;;;;6283562;28;20174;-75
2024/02/27 14:16:54;;;;;;;8.60;3.63;;;14.80;52.30;;;;;;6288150;28;20104;-76
2024/02/27 14:19:55;;;;;;;6.60;4.00;;;14.80;52.50;;;;;;6291394;28;20463;-76
2024/02/27 14:22:56;;;;;;;7.00;3.47;;;14.70;52.60;;;;;;6307705;28;20079;-76
2024/02/27 14:25:57;;;;;;;5.75;3.15;;;14.70;52.70;;;;;;6309290;28;20436;-77
2024/02/27 14:28:58;;;;;;;5.70;3.55;;;14.80;52.70;;;;;;6299552;28;20563;-76
2024/02/27 14:32:01;;;;;;;12.77;4.05;;;14.70;52.70;;;;;;6297192;28;20092;-76
2024/02/27 14:35:02;;;;;;;6.78;4.00;;;14.70;52.70;;;;;;6308120;28;20092;-76
2024/02/27 14:38:04;;;;;;;10.43;4.20;;;14.70;52.80;;;;;;6306919;28;20499;-76
2024/02/27 14:41:05;;;;;;;5.28;3.65;;;14.60;52.90;;;;;;6305702;28;20114;-74
2024/02/27 14:44:06;;;;;;;6.28;3.70;;;14.60;53.10;;;;;;6306523;28;20027;-77
2024/02/27 14:47:06;;;;;;;6.68;3.33;;;14.60;53.20;;;;;;6295176;28;20028;-76
2024/02/27 14:50:08;;;;;;;8.70;4.22;;;14.60;53.20;;;;;;6304589;28;20184;-76
2024/02/27 14:53:09;;;;;;;10.90;4.25;;;14.60;53.30;;;;;;6294398;28;20032;-76
2024/02/27 14:56:10;;;;;;;9.18;3.97;;;14.60;53.40;;;;;;6285882;28;20032;-75
2024/02/27 14:59:11;;;;;;;10.02;3.50;;;14.50;53.50;;;;;;6300562;28;20062;-76
2024/02/27 15:02:12;;;;;;;6.78;3.97;;;14.50;53.70;;;;;;6290680;28;20046;-77
2024/02/27 15:05:13;;;;;;;5.07;3.35;;;14.50;53.80;;;;;;6306679;28;20111;-76
2024/02/27 15:08:13;;;;;;;7.28;3.92;;;14.50;53.80;;;;;;6283096;28;20042;-76
2024/02/27 15:11:14;;;;;;;7.03;3.67;;;14.50;53.90;;;;;;6282372;28;20021;-74
2024/02/27 15:14:15;;;;;;;6.55;3.55;;;14.50;54.60;;;;;;6304532;28;20039;-75
2024/02/27 15:17:17;;;;;;;7.13;4.18;;;14.40;54.10;;;;;;6298634;28;20098;-76
2024/02/27 15:20:17;;;;;;;7.68;4.28;;;14.40;54.00;;;;;;6293508;28;20115;-75
2024/02/27 15:23:18;;;;;;;5.88;3.42;;;14.40;54.10;;;;;;6288460;28;20031;-76
2024/02/27 15:26:19;;;;;;;5.20;3.28;;;14.40;54.10;;;;;;6290569;28;20432;-76
2024/02/27 15:29:21;;;;;;;6.95;4.20;;;14.40;54.10;;;;;;6283605;28;20040;-76
2024/02/27 15:32:22;;;;;;;9.20;4.03;;;14.40;54.10;;;;;;6302967;28;20016;-76
2024/02/27 15:35:23;;;;;;;6.03;3.53;;;14.40;54.10;;;;;;6281753;28;20135;-77
2024/02/27 15:38:24;;;;;;;8.52;4.15;;;14.40;54.10;;;;;;6285018;28;20021;-75
2024/02/27 15:41:26;;;;;;;6.05;3.70;;;14.40;54.10;;;;;;6304530;28;20084;-78
2024/02/27 15:44:27;;;;;;;7.35;3.83;;;14.40;54.10;;;;;;6304566;28;20476;-76
2024/02/27 15:47:28;;;;;;;7.55;3.70;;;14.40;54.10;;;;;;6306302;28;20028;-75
2024/02/27 15:50:28;;;;;;;7.60;4.20;;;14.40;54.20;;;;;;6289447;28;20043;-76